Beaufort, NC (28516)

4:48 PM EST on February 14, 2016 (GMT -0500)
NOS_NWLON | | Change Station
CLOSE
Current Station
Personal Weather Station
Location: Beaufort, NC
Elevation: 0 ft
Nearby Weather Stations

Elev 0 ft 34.72 °N, 76.67 °W | Updated 36 minutes ago

Clear
Clear
28 °F
Feels Like 21 °F
N
7
Wind Variable Wind from NE
Gusts 11.0 mph

Today
High -- | Low -- °F
--% Chance of Precip.
Yesterday
High -- | Low -- °F
Precip. -- in
Pressure 30.50 in
Visibility 10.0 miles
Clouds Clear
Windchill 21 °F
Dew Point Not available.
Humidity Not available.
Rainfall in
Snow Depth Not available.
6:53 AM 5:48 PM
Waxing Crescent, 45% visible
METAR KMRH 142058Z AUTO 07006KT 10SM CLR M01/M13 A3050 RMK AO2 SLP328 T10111133 55007 TSNO $
Pressure 30.50 in
Visibility 10.0 miles
Clouds Clear
Windchill 21 °F
Dew Point Not available.
Humidity Not available.
Rainfall in
Snow Depth Not available.
6:53 AM 5:48 PM
Waxing Crescent, 45% visible
METAR KMRH 142058Z AUTO 07006KT 10SM CLR M01/M13 A3050 RMK AO2 SLP328 T10111133 55007 TSNO $

10-Day Weather Forecast

Almanac

Astronomy

Feb. 14, 2016 Rise Set
Actual Time
Civil Twilight
Nautical Twilight
Astronomical Twilight
Moon
Length of Visible Light
Length of Day
Tomorrow will be .
, % of the Moon is Illuminated

Today's Extremes

State Highs State Lows

Community

WunderPhotos

Upload Photos

1,892,890 photos uploaded!

WunderBlog® & News

Nearby

Air Quality

  Air Quality AQ Index Pollutant
Not available.

Snow Depth

Station Depth Elevation

Earthquake Activity

City Distance Mag. Time & Date
Minimum magnitude displayed is 2.5.

Coastal Water Temperatures

Place Temperature

Stations

Nearby Weather Stations

Station Location Temp. Windchill Dew Point Humidity Wind Precip. Elev Updated Type
                   

Watches & Warnings

There are currently no watches in effect.